createdAt,value
2022-09-23T00:00:41.442Z,100893.47
2022-09-23T00:03:46.853Z,100896.13
2022-09-23T00:06:51.299Z,100898.09
2022-09-23T00:09:56.063Z,100900.91
2022-09-23T00:13:00.041Z,100894.34
2022-09-23T00:16:09.631Z,100898.22
2022-09-23T00:19:13.652Z,100893.97
2022-09-23T00:22:17.579Z,100893.41
2022-09-23T00:25:21.904Z,100893.94
2022-09-23T00:28:25.695Z,100884.28
2022-09-23T00:31:29.794Z,100882.06
2022-09-23T00:34:33.943Z,100880.72
2022-09-23T00:37:38.299Z,100878.56
2022-09-23T00:40:43.947Z,100884.53
2022-09-23T00:43:52.203Z,100874.56
2022-09-23T00:46:57.009Z,100872.72
2022-09-23T00:50:12.692Z,100876.44
2022-09-23T00:53:19.854Z,100869.75
2022-09-23T00:56:24.512Z,100868.03
2022-09-23T00:59:29.135Z,100859.22
2022-09-23T01:02:33.355Z,100866.16
2022-09-23T01:05:37.209Z,100866.06
2022-09-23T01:08:44.485Z,100864.31
2022-09-23T01:12:26.540Z,100857.81
2022-09-23T01:15:56.802Z,100863.25
2022-09-23T01:19:27.152Z,100853.13
2022-09-23T01:22:42.069Z,100842.47
2022-09-23T01:26:10.479Z,100843.75
2022-09-23T01:29:23.862Z,100847.53
2022-09-23T01:32:43.234Z,100843.00
2022-09-23T01:36:04.608Z,100843.41
2022-09-23T01:39:33.815Z,100842.16
2022-09-23T01:42:42.943Z,100840.03
2022-09-23T01:45:48.473Z,100838.81
2022-09-23T01:49:02.763Z,100841.53
2022-09-23T01:52:15.875Z,100827.31
2022-09-23T01:55:26.772Z,100819.19
2022-09-23T01:58:41.913Z,100814.00
2022-09-23T02:01:54.095Z,100815.63
2022-09-23T02:05:11.943Z,100810.16
2022-09-23T02:08:21.610Z,100812.28
2022-09-23T02:11:26.886Z,100797.00
2022-09-23T02:14:36.396Z,100796.19
2022-09-23T02:17:51.972Z,100796.19
2022-09-23T02:21:03.429Z,100793.00
2022-09-23T02:24:15.409Z,100801.50
2022-09-23T02:27:34.424Z,100797.13
2022-09-23T02:30:49.428Z,100799.78
2022-09-23T02:34:18.109Z,100779.78
2022-09-23T02:37:43.574Z,100784.72
2022-09-23T02:41:17.651Z,100779.78
2022-09-23T02:44:23.610Z,100782.19
2022-09-23T02:47:31.723Z,100774.59
2022-09-23T02:50:37.101Z,100785.75
2022-09-23T02:53:40.995Z,100776.16
2022-09-23T02:56:44.722Z,100775.38
2022-09-23T02:59:50.716Z,100784.13
2022-09-23T03:03:19.279Z,100782.25
2022-09-23T03:06:42.361Z,100784.78
2022-09-23T03:10:04.264Z,100774.19
2022-09-23T03:13:35.192Z,100770.16
2022-09-23T03:16:52.189Z,100761.63
2022-09-23T03:20:05.225Z,100766.13
2022-09-23T03:23:12.548Z,100770.00
2022-09-23T03:26:27.552Z,100760.34
2022-09-23T03:29:32.830Z,100764.25
2022-09-23T03:32:38.471Z,100766.78
2022-09-23T03:36:12.076Z,100755.06
2022-09-23T03:39:28.315Z,100752.41
2022-09-23T03:42:33.996Z,100753.47
2022-09-23T03:45:39.008Z,100750.00
2022-09-23T03:48:44.917Z,100751.63
2022-09-23T03:51:49.228Z,100752.00
2022-09-23T03:54:53.618Z,100745.47
2022-09-23T03:57:57.834Z,100736.16
2022-09-23T04:01:01.758Z,100743.72
2022-09-23T04:04:05.712Z,100726.75
2022-09-23T04:07:11.228Z,100728.34
2022-09-23T04:10:15.461Z,100726.88
2022-09-23T04:13:19.543Z,100717.69
2022-09-23T04:16:24.858Z,100708.66
2022-09-23T04:19:29.035Z,100707.97
2022-09-23T04:22:34.086Z,100707.16
2022-09-23T04:25:47.984Z,100709.41
2022-09-23T04:28:52.113Z,100717.09
2022-09-23T04:31:56.086Z,100723.09
2022-09-23T04:35:00.134Z,100712.66
2022-09-23T04:38:05.180Z,100706.84
2022-09-23T04:41:09.777Z,100707.22
2022-09-23T04:44:14.742Z,100705.25
2022-09-23T04:47:19.377Z,100706.84
2022-09-23T04:50:25.612Z,100704.13
2022-09-23T04:53:30.393Z,100706.56
2022-09-23T04:56:34.351Z,100700.16
2022-09-23T04:59:38.388Z,100703.28
2022-09-23T05:02:46.607Z,100704.19
2022-09-23T05:05:50.924Z,100696.16
2022-09-23T05:08:56.506Z,100701.72
2022-09-23T05:12:00.589Z,100701.72
2022-09-23T05:15:05.323Z,100696.44
2022-09-23T05:18:09.678Z,100702.28
2022-09-23T05:21:16.763Z,100699.50
2022-09-23T05:24:21.692Z,100696.63
2022-09-23T05:27:25.502Z,100710.84
2022-09-23T05:30:29.934Z,100697.03
2022-09-23T05:33:36.058Z,100701.16
2022-09-23T05:36:39.920Z,100697.72
2022-09-23T05:39:43.947Z,100700.66
2022-09-23T05:42:47.847Z,100696.53
2022-09-23T05:45:52.722Z,100691.34
2022-09-23T05:49:02.096Z,100696.28
2022-09-23T05:52:06.399Z,100692.84
2022-09-23T05:55:11.631Z,100696.44
2022-09-23T05:58:15.772Z,100697.66
2022-09-23T06:01:23.079Z,100696.22
2022-09-23T06:04:27.555Z,100693.69
2022-09-23T06:07:32.625Z,100695.16
2022-09-23T06:10:41.530Z,100704.47
2022-09-23T06:13:45.730Z,100702.47
2022-09-23T06:16:51.485Z,100705.56
2022-09-23T06:19:55.496Z,100703.72
2022-09-23T06:23:10.643Z,100708.41
2022-09-23T06:26:16.714Z,100707.44
2022-09-23T06:29:20.521Z,100706.66
2022-09-23T06:32:24.761Z,100705.19
2022-09-23T06:35:29.208Z,100701.59
2022-09-23T06:38:34.655Z,100700.78
2022-09-23T06:41:39.261Z,100695.34
2022-09-23T06:44:43.318Z,100705.72
2022-09-23T06:47:49.628Z,100701.69
2022-09-23T06:50:54.830Z,100707.34
2022-09-23T06:54:02.108Z,100715.72
2022-09-23T06:57:06.541Z,100711.69
2022-09-23T07:00:11.929Z,100707.91
2022-09-23T07:03:15.909Z,100713.47
2022-09-23T07:06:20.362Z,100705.56
2022-09-23T07:09:24.469Z,100704.84
2022-09-23T07:12:28.647Z,100707.72
2022-09-23T07:15:33.847Z,100703.88
2022-09-23T07:18:39.125Z,100708.47
2022-09-23T07:21:42.899Z,100704.56
2022-09-23T07:24:47.160Z,100705.00
2022-09-23T07:27:51.506Z,100696.25
2022-09-23T07:31:00.371Z,100701.88
2022-09-23T07:34:05.116Z,100717.31
2022-09-23T07:37:09.197Z,100714.34
2022-09-23T07:40:13.454Z,100714.75
2022-09-23T07:43:18.344Z,100716.16
2022-09-23T07:46:22.319Z,100706.06
2022-09-23T07:49:27.573Z,100716.13
2022-09-23T07:52:31.821Z,100713.50
2022-09-23T07:55:36.170Z,100711.66
2022-09-23T07:58:40.722Z,100722.50
2022-09-23T08:01:48.299Z,100716.88
2022-09-23T08:04:53.411Z,100712.03
2022-09-23T08:07:57.736Z,100709.16
2022-09-23T08:11:04.709Z,100716.34
2022-09-23T08:14:13.525Z,100710.28
2022-09-23T08:17:17.580Z,100719.19
2022-09-23T08:20:43.661Z,100709.34
2022-09-23T08:23:50.999Z,100710.44
2022-09-23T08:26:54.852Z,100709.78
2022-09-23T08:29:59.132Z,100710.72
2022-09-23T08:33:03.075Z,100702.13
2022-09-23T08:36:08.041Z,100698.50
2022-09-23T08:39:19.112Z,100702.72
2022-09-23T08:42:30.683Z,100698.84
2022-09-23T08:45:37.367Z,100701.53
2022-09-23T08:48:46.313Z,100698.75
2022-09-23T08:51:54.798Z,100704.41
2022-09-23T08:54:58.968Z,100680.44
2022-09-23T08:58:37.192Z,100692.78
2022-09-23T09:01:47.433Z,100687.34
2022-09-23T09:05:00.303Z,100688.44
2022-09-23T09:08:05.091Z,100679.03
2022-09-23T09:11:13.553Z,100675.59
2022-09-23T09:14:24.733Z,100674.94
2022-09-23T09:17:31.789Z,100662.00
2022-09-23T09:20:57.609Z,100670.59
2022-09-23T09:24:05.268Z,100669.44
2022-09-23T09:27:12.794Z,100673.41
2022-09-23T09:30:18.144Z,100669.13
2022-09-23T09:33:57.992Z,100666.88
2022-09-23T09:37:20.167Z,100668.81
2022-09-23T09:40:25.599Z,100670.97
2022-09-23T09:43:32.395Z,100658.28
2022-09-23T09:46:46.539Z,100654.50
2022-09-23T09:50:03.227Z,100649.41
2022-09-23T09:53:21.847Z,100649.47
2022-09-23T09:56:33.034Z,100644.81
2022-09-23T09:59:42.012Z,100645.66
2022-09-23T10:02:47.280Z,100637.31
2022-09-23T10:05:54.582Z,100638.94
2022-09-23T10:09:15.105Z,100629.16
2022-09-23T10:12:24.525Z,100621.56
2022-09-23T10:15:44.939Z,100622.22
2022-09-23T10:18:57.060Z,100622.13
2022-09-23T10:22:21.126Z,100619.66
2022-09-23T10:25:31.701Z,100620.44
2022-09-23T10:28:56.580Z,100625.09
2022-09-23T10:32:33.528Z,100621.69
2022-09-23T10:36:01.403Z,100621.00
2022-09-23T10:39:28.744Z,100619.44
2022-09-23T10:43:19.217Z,100619.38
2022-09-23T10:46:42.586Z,100622.31
2022-09-23T10:50:25.516Z,100613.63
2022-09-23T10:53:36.300Z,100606.50
2022-09-23T10:57:22.602Z,100599.66
2022-09-23T11:00:52.004Z,100594.53
2022-09-23T11:04:07.560Z,100585.50
2022-09-23T11:07:38.271Z,100587.56
2022-09-23T11:11:11.569Z,100583.47
2022-09-23T11:14:54.520Z,100575.34
2022-09-23T11:18:22.926Z,100575.94
2022-09-23T11:22:15.997Z,100573.16
2022-09-23T11:25:39.219Z,100567.03
2022-09-23T11:29:22.328Z,100560.41
2022-09-23T11:36:26.553Z,100556.66
2022-09-23T11:39:37.937Z,100553.13
2022-09-23T11:43:07.213Z,100548.81
2022-09-23T11:46:42.136Z,100545.25
2022-09-23T11:50:02.490Z,100542.28
2022-09-23T11:53:09.415Z,100532.06
2022-09-23T11:56:36.898Z,100533.63
2022-09-23T11:59:55.148Z,100522.97
2022-09-23T12:03:44.395Z,100522.72
2022-09-23T12:06:56.831Z,100520.91
2022-09-23T12:10:08.488Z,100515.75
2022-09-23T12:13:19.291Z,100510.81
2022-09-23T12:16:39.688Z,100504.22
2022-09-23T12:19:57.195Z,100500.31
2022-09-23T12:23:25.455Z,100500.69
2022-09-23T12:26:32.362Z,100501.88
2022-09-23T12:29:39.014Z,100496.56
2022-09-23T12:32:43.298Z,100503.25
2022-09-23T12:35:47.615Z,100492.59
2022-09-23T12:38:56.146Z,100491.25
2022-09-23T12:42:06.389Z,100492.97
2022-09-23T12:45:34.742Z,100486.84
2022-09-23T12:48:58.347Z,100485.06
2022-09-23T12:52:16.400Z,100476.19
2022-09-23T12:55:20.729Z,100476.78
2022-09-23T12:58:48.121Z,100474.84
2022-09-23T13:01:52.574Z,100473.44
2022-09-23T13:05:21.341Z,100465.72
2022-09-23T13:08:25.688Z,100469.91
2022-09-23T13:11:31.556Z,100464.16
2022-09-23T13:14:36.441Z,100452.97
2022-09-23T13:17:40.829Z,100449.41
2022-09-23T13:20:46.990Z,100448.06
2022-09-23T13:24:23.963Z,100448.25
2022-09-23T13:27:33.919Z,100442.13
2022-09-23T13:30:48.069Z,100430.47
2022-09-23T13:33:59.725Z,100428.91
2022-09-23T13:37:24.692Z,100409.59
2022-09-23T13:40:29.975Z,100411.56
2022-09-23T13:43:42.606Z,100408.91
2022-09-23T13:46:50.523Z,100404.00
2022-09-23T13:49:55.450Z,100403.66
2022-09-23T13:53:02.456Z,100393.84
2022-09-23T13:56:13.781Z,100393.03
2022-09-23T13:59:28.351Z,100391.91
2022-09-23T14:02:32.476Z,100384.78
2022-09-23T14:05:38.429Z,100380.69
2022-09-23T14:08:47.928Z,100380.47
2022-09-23T14:11:52.194Z,100376.13
2022-09-23T14:14:57.167Z,100372.97
2022-09-23T14:18:06.259Z,100379.88
2022-09-23T14:21:34.955Z,100374.53
2022-09-23T14:24:39.485Z,100366.44
2022-09-23T14:27:46.714Z,100367.63
2022-09-23T14:30:52.948Z,100360.31
2022-09-23T14:33:56.740Z,100370.97
2022-09-23T14:37:36.836Z,100360.06
2022-09-23T14:41:17.056Z,100359.44
2022-09-23T14:44:23.716Z,100355.47
2022-09-23T14:47:29.028Z,100354.34
2022-09-23T14:50:40.477Z,100343.38
2022-09-23T14:53:48.709Z,100335.72
2022-09-23T14:56:54.010Z,100331.00
2022-09-23T15:00:18.276Z,100335.72
2022-09-23T15:03:22.869Z,100333.56
2022-09-23T15:06:27.621Z,100334.16
2022-09-23T15:09:36.219Z,100339.50
2022-09-23T15:12:40.504Z,100333.97
2022-09-23T15:15:45.167Z,100330.59
2022-09-23T15:18:57.681Z,100324.13
2022-09-23T15:22:01.808Z,100326.69
2022-09-23T15:25:30.247Z,100320.78
2022-09-23T15:28:34.405Z,100320.78
2022-09-23T15:31:39.029Z,100316.66
2022-09-23T15:34:42.805Z,100315.66
2022-09-23T15:37:49.172Z,100316.03
2022-09-23T15:40:53.956Z,100316.03
2022-09-23T15:43:58.406Z,100314.28
2022-09-23T15:47:02.734Z,100312.69
2022-09-23T15:50:07.281Z,100308.34
2022-09-23T15:53:17.478Z,100304.81
2022-09-23T15:56:22.726Z,100298.53
2022-09-23T15:59:28.616Z,100299.69
2022-09-23T16:02:33.278Z,100298.13
2022-09-23T16:05:39.483Z,100294.75
2022-09-23T16:08:43.365Z,100293.59
2022-09-23T16:11:49.244Z,100293.38
2022-09-23T16:14:53.150Z,100296.75
2022-09-23T16:18:03.924Z,100292.59
2022-09-23T16:21:12.979Z,100294.16
2022-09-23T16:24:18.884Z,100291.63
2022-09-23T16:27:23.091Z,100292.97
2022-09-23T16:30:28.338Z,100287.63
2022-09-23T16:33:32.092Z,100278.75
2022-09-23T16:36:40.595Z,100287.44
2022-09-23T16:39:44.260Z,100289.00
2022-09-23T16:42:50.052Z,100287.97
2022-09-23T16:45:54.522Z,100287.00
2022-09-23T16:48:58.692Z,100279.06
2022-09-23T16:52:02.788Z,100293.19
2022-09-23T16:55:08.673Z,100280.56
2022-09-23T16:58:12.436Z,100286.66
2022-09-23T17:01:39.841Z,100288.53
2022-09-23T17:04:43.872Z,100282.81
2022-09-23T17:07:48.681Z,100278.03
2022-09-23T17:11:00.475Z,100283.28
2022-09-23T17:14:05.654Z,100284.41
2022-09-23T17:17:09.913Z,100284.19
2022-09-23T17:20:14.295Z,100287.47
2022-09-23T17:23:19.419Z,100274.84
2022-09-23T17:26:25.946Z,100278.75
2022-09-23T17:29:30.591Z,100283.25
2022-09-23T17:32:34.534Z,100286.75
2022-09-23T17:35:41.686Z,100287.63
2022-09-23T17:38:48.187Z,100279.75
2022-09-23T17:41:52.917Z,100273.44
2022-09-23T17:44:59.325Z,100267.16
2022-09-23T17:48:03.836Z,100278.16
2022-09-23T17:51:12.057Z,100280.66
2022-09-23T17:54:15.910Z,100275.38
2022-09-23T17:57:19.982Z,100274.53
2022-09-23T18:00:24.267Z,100275.47
2022-09-23T18:03:30.328Z,100282.94
2022-09-23T18:06:37.005Z,100280.00
2022-09-23T18:09:41.128Z,100278.41
2022-09-23T18:12:44.976Z,100273.16
2022-09-23T18:15:48.857Z,100267.72
2022-09-23T18:19:00.358Z,100274.81
2022-09-23T18:22:04.421Z,100271.97
2022-09-23T18:25:28.582Z,100270.50
2022-09-23T18:28:34.960Z,100270.03
2022-09-23T18:31:39.594Z,100266.28
2022-09-23T18:34:43.894Z,100271.63
2022-09-23T18:37:47.770Z,100264.56
2022-09-23T18:40:55.416Z,100272.56
2022-09-23T18:44:00.011Z,100259.22
2022-09-23T18:47:03.921Z,100260.91
2022-09-23T18:50:35.160Z,100268.38
2022-09-23T18:53:40.928Z,100265.19
2022-09-23T18:56:46.447Z,100268.56
2022-09-23T18:59:50.165Z,100272.28
2022-09-23T19:02:53.987Z,100268.22
2022-09-23T19:06:07.716Z,100268.22
2022-09-23T19:09:12.447Z,100270.56
2022-09-23T19:12:16.292Z,100269.41
2022-09-23T19:15:20.594Z,100274.13
2022-09-23T19:18:24.695Z,100274.13
2022-09-23T19:21:29.955Z,100273.25
2022-09-23T19:24:33.785Z,100272.06
2022-09-23T19:27:39.277Z,100268.94
2022-09-23T19:30:43.245Z,100267.34
2022-09-23T19:33:58.740Z,100272.44
2022-09-23T19:37:04.447Z,100269.09
2022-09-23T19:40:09.403Z,100270.25
2022-09-23T19:43:14.455Z,100256.44
2022-09-23T19:46:19.432Z,100256.78
2022-09-23T19:49:24.484Z,100256.19
2022-09-23T19:52:28.592Z,100258.28
2022-09-23T19:55:35.471Z,100255.69
2022-09-23T19:58:39.320Z,100247.44
2022-09-23T20:01:43.478Z,100254.63
2022-09-23T20:04:47.694Z,100252.97
2022-09-23T20:07:52.765Z,100252.72
2022-09-23T20:10:56.801Z,100253.69
2022-09-23T20:14:04.703Z,100247.03
2022-09-23T20:17:08.617Z,100252.28
2022-09-23T20:20:13.531Z,100250.16
2022-09-23T20:23:17.557Z,100250.16
2022-09-23T20:26:41.885Z,100244.09
2022-09-23T20:29:46.216Z,100245.53
2022-09-23T20:32:50.196Z,100237.34
2022-09-23T20:35:56.774Z,100239.00
2022-09-23T20:39:03.126Z,100232.97
2022-09-23T20:42:09.166Z,100228.91
2022-09-23T20:45:13.301Z,100223.06
2022-09-23T20:48:17.417Z,100232.16
2022-09-23T20:51:21.336Z,100224.09
2022-09-23T20:54:24.991Z,100231.66
2022-09-23T20:57:31.505Z,100215.59
2022-09-23T21:00:35.632Z,100220.59
2022-09-23T21:03:41.573Z,100215.72
2022-09-23T21:06:45.339Z,100208.81
2022-09-23T21:09:49.362Z,100219.00
2022-09-23T21:12:54.283Z,100205.53
2022-09-23T21:16:09.545Z,100204.34
2022-09-23T21:19:13.801Z,100202.78
2022-09-23T21:22:18.472Z,100209.53
2022-09-23T21:25:27.841Z,100210.06
2022-09-23T21:28:43.122Z,100208.50
2022-09-23T21:31:49.677Z,100212.00
2022-09-23T21:34:54.018Z,100213.00
2022-09-23T21:38:00.236Z,100207.28
2022-09-23T21:41:07.884Z,100213.09
2022-09-23T21:44:11.984Z,100204.88
2022-09-23T21:47:16.111Z,100204.56
2022-09-23T21:50:20.484Z,100219.13
2022-09-23T21:53:25.550Z,100205.97
2022-09-23T21:56:32.735Z,100204.72
2022-09-23T21:59:36.711Z,100209.81
2022-09-23T22:02:40.356Z,100207.19
2022-09-23T22:05:44.347Z,100209.56
2022-09-23T22:08:50.744Z,100202.53
2022-09-23T22:12:11.621Z,100203.31
2022-09-23T22:15:19.788Z,100203.84
2022-09-23T22:18:23.575Z,100196.13
2022-09-23T22:21:30.051Z,100201.91
2022-09-23T22:24:34.186Z,100210.41
2022-09-23T22:27:58.142Z,100205.31
2022-09-23T22:31:20.948Z,100208.66
2022-09-23T22:34:48.567Z,100205.63
2022-09-23T22:37:52.298Z,100200.75
2022-09-23T22:40:56.278Z,100204.75
2022-09-23T22:44:00.807Z,100198.91
2022-09-23T22:47:04.955Z,100199.06
2022-09-23T22:50:09.771Z,100190.19
2022-09-23T22:53:14.010Z,100181.47
2022-09-23T22:56:17.957Z,100186.94
2022-09-23T22:59:23.140Z,100187.09
2022-09-23T23:02:27.635Z,100194.25
2022-09-23T23:05:31.846Z,100195.06
2022-09-23T23:08:37.196Z,100195.25
2022-09-23T23:11:42.117Z,100192.06
2022-09-23T23:14:48.596Z,100194.94
2022-09-23T23:17:53.731Z,100187.84
2022-09-23T23:21:13.139Z,100178.19
2022-09-23T23:24:20.163Z,100181.84
2022-09-23T23:27:24.112Z,100182.00
2022-09-23T23:30:28.256Z,100169.19
2022-09-23T23:33:32.408Z,100163.81
2022-09-23T23:36:36.328Z,100162.88
2022-09-23T23:39:40.522Z,100168.50
2022-09-23T23:42:44.610Z,100160.88
2022-09-23T23:45:51.469Z,100153.47
2022-09-23T23:48:56.185Z,100162.19
2022-09-23T23:52:00.215Z,100162.97
2022-09-23T23:55:04.738Z,100155.88
2022-09-23T23:58:08.660Z,100158.13
